Time;durP1;ratioP1;P1;durP2;ratioP2;P2;SDS_P1;SDS_P2;PMS_P1;PMS_P2;Temp;Humidity;BMP_temperature;BMP_pressure;BME280_temperature;BME280_humidity;BME280_pressure;Samples;Min_cycle;Max_cycle;Signal;HPM_P1;HPM_P2
2023/07/19 00:01:50;;;;;;;3.15;1.73;;;;;;;20.99;49.74;99661.63;5012676;28;20512;-79
2023/07/19 00:04:16;;;;;;;3.53;2.13;;;;;;;20.97;50.01;99651.06;5012596;28;20050;-79
2023/07/19 00:06:43;;;;;;;3.28;1.65;;;;;;;20.95;49.63;99647.72;5012127;28;20409;-79
2023/07/19 00:09:09;;;;;;;6.63;2.25;;;;;;;20.94;50.02;99652.22;5012459;28;20057;-79
2023/07/19 00:11:35;;;;;;;4.13;1.98;;;;;;;20.92;49.78;99648.03;5012181;28;20519;-79
2023/07/19 00:14:05;;;;;;;6.07;1.98;;;;;;;20.90;50.07;99642.03;5012391;28;20049;-79
2023/07/19 00:16:33;;;;;;;6.72;1.90;;;;;;;20.86;50.31;99627.25;5012159;28;20058;-79
2023/07/19 00:19:00;;;;;;;3.22;1.63;;;;;;;20.82;50.65;99627.56;5012135;28;20492;-79
2023/07/19 00:21:45;;;;;;;3.55;1.95;;;;;;;20.78;50.19;99628.03;5012041;28;20049;-79
2023/07/19 00:24:11;;;;;;;5.97;2.20;;;;;;;20.75;50.60;99623.00;5012169;28;20096;-79
2023/07/19 00:26:38;;;;;;;3.15;2.10;;;;;;;20.73;50.48;99622.31;5011962;28;20060;-79
2023/07/19 00:29:04;;;;;;;3.60;1.67;;;;;;;20.69;50.51;99611.09;5011527;28;20049;-79
2023/07/19 00:31:31;;;;;;;4.50;2.17;;;;;;;20.69;50.86;99614.63;5011950;28;20054;-79
2023/07/19 00:33:57;;;;;;;8.13;2.17;;;;;;;20.68;51.05;99612.91;5011841;28;20679;-79
2023/07/19 00:36:23;;;;;;;3.47;1.60;;;;;;;20.66;50.86;99598.88;5011619;28;20488;-79
2023/07/19 00:38:50;;;;;;;3.15;1.85;;;;;;;20.66;50.95;99606.06;5011841;28;20050;-79
2023/07/19 00:41:18;;;;;;;4.70;2.22;;;;;;;20.63;51.02;99599.19;5012038;28;20272;-79
2023/07/19 00:43:47;;;;;;;5.90;2.13;;;;;;;20.62;51.13;99599.34;5011349;28;20103;-79
2023/07/19 00:46:13;;;;;;;2.67;1.73;;;;;;;20.61;51.37;99598.50;5011188;28;20512;-79
2023/07/19 00:48:41;;;;;;;3.35;1.80;;;;;;;20.60;51.23;99588.81;5011505;28;20141;-79
2023/07/19 00:51:08;;;;;;;4.35;1.83;;;;;;;20.59;51.01;99583.63;5011814;28;20076;-79
2023/07/19 00:53:36;;;;;;;2.65;1.38;;;;;;;20.57;51.06;99589.13;5002925;28;20429;-79
2023/07/19 00:56:03;;;;;;;2.47;1.55;;;;;;;20.55;51.00;99577.72;5011608;28;20473;-79
2023/07/19 00:58:31;;;;;;;5.70;1.80;;;;;;;20.55;51.16;99580.41;5011280;28;20079;-79
2023/07/19 01:00:57;;;;;;;3.72;1.60;;;;;;;20.53;51.05;99583.25;5006163;28;20056;-79
2023/07/19 01:03:23;;;;;;;3.17;1.83;;;;;;;20.52;51.19;99583.41;5011662;28;20062;-79
2023/07/19 01:05:50;;;;;;;5.32;1.70;;;;;;;20.51;51.40;99574.53;5004542;28;20080;-79
2023/07/19 01:08:18;;;;;;;4.80;1.80;;;;;;;20.49;51.21;99578.38;5011148;28;20077;-79
2023/07/19 01:10:45;;;;;;;2.45;1.40;;;;;;;20.47;50.36;99575.00;5004165;28;20050;-79
2023/07/19 01:13:12;;;;;;;5.32;1.88;;;;;;;20.47;50.89;99575.00;5011001;28;20054;-79
2023/07/19 01:15:40;;;;;;;4.63;1.45;;;;;;;20.46;50.92;99578.69;5011360;28;20047;-79
2023/07/19 01:18:07;;;;;;;5.45;1.55;;;;;;;20.42;51.21;99570.97;5007170;28;20057;-79
2023/07/19 01:20:34;;;;;;;4.63;1.65;;;;;;;20.41;50.92;99568.47;5002655;28;20046;-79
2023/07/19 01:23:01;;;;;;;2.60;1.60;;;;;;;20.39;50.94;99568.63;5009963;28;20100;-79
2023/07/19 01:25:28;;;;;;;3.28;1.67;;;;;;;20.39;50.83;99562.44;5011002;28;20147;-79
2023/07/19 01:27:54;;;;;;;2.80;1.60;;;;;;;20.39;50.92;99563.28;5010885;28;20132;-80
2023/07/19 01:30:21;;;;;;;3.22;1.40;;;;;;;20.38;50.73;99556.25;5011149;28;20042;-79
2023/07/19 01:32:47;;;;;;;3.53;1.20;;;;;;;20.39;51.04;99559.75;5010722;28;20598;-79
2023/07/19 01:35:14;;;;;;;4.35;1.45;;;;;;;20.39;50.70;99557.94;5010738;28;20515;-79
2023/07/19 01:37:40;;;;;;;2.30;1.17;;;;;;;20.39;50.31;99557.94;5010838;28;20057;-79
2023/07/19 01:40:10;;;;;;;5.15;1.52;;;;;;;20.38;50.72;99558.94;5006287;28;20501;-79
2023/07/19 01:42:37;;;;;;;2.40;1.20;;;;;;;20.40;50.38;99551.59;5002360;28;20455;-79
2023/07/19 01:45:03;;;;;;;5.20;1.45;;;;;;;20.40;50.57;99551.59;5010646;28;20061;-79
2023/07/19 01:47:30;;;;;;;1.98;1.35;;;;;;;20.40;50.53;99551.59;5010714;28;20054;-81
2023/07/19 01:49:57;;;;;;;2.05;1.48;;;;;;;20.40;50.08;99548.91;5005013;28;20050;-81
2023/07/19 01:52:23;;;;;;;1.30;1.20;;;;;;;20.39;50.09;99547.25;5010263;28;20429;-81
2023/07/19 01:54:51;;;;;;;2.15;1.15;;;;;;;20.41;49.73;99547.09;5010589;28;20049;-81
2023/07/19 01:57:17;;;;;;;2.03;1.10;;;;;;;20.39;49.60;99544.56;5010330;28;20568;-81
2023/07/19 01:59:43;;;;;;;2.70;1.25;;;;;;;20.42;49.53;99541.56;5003695;28;20269;-81
2023/07/19 02:02:10;;;;;;;1.75;1.27;;;;;;;20.41;49.48;99542.56;5010731;28;20057;-81
2023/07/19 02:04:37;;;;;;;2.40;1.60;;;;;;;20.41;49.29;99533.72;5010082;28;20128;-81
2023/07/19 02:07:03;;;;;;;5.00;1.67;;;;;;;20.42;48.82;99527.38;5009917;28;20491;-81
2023/07/19 02:09:30;;;;;;;2.22;1.40;;;;;;;20.41;48.64;99515.00;5010397;28;20050;-81
2023/07/19 02:11:56;;;;;;;2.65;1.30;;;;;;;20.41;48.71;99523.84;5010793;28;20045;-81
2023/07/19 02:14:23;;;;;;;5.45;1.85;;;;;;;20.41;48.54;99521.19;5010261;28;20057;-81
2023/07/19 02:16:49;;;;;;;2.38;1.52;;;;;;;20.41;48.57;99513.16;5010085;28;20502;-81
2023/07/19 02:19:16;;;;;;;3.35;1.58;;;;;;;20.42;48.78;99514.00;5007725;28;20061;-81
2023/07/19 02:21:43;;;;;;;1.77;1.27;;;;;;;20.43;48.49;99513.00;5003378;28;20054;-80
2023/07/19 02:24:09;;;;;;;2.40;1.70;;;;;;;20.44;48.61;99517.34;5010012;28;20053;-81
2023/07/19 02:26:36;;;;;;;2.97;1.50;;;;;;;20.43;48.22;99519.19;5010276;28;20053;-80
2023/07/19 02:29:02;;;;;;;3.50;1.30;;;;;;;20.43;47.97;99516.53;5009832;28;20511;-80
2023/07/19 02:31:29;;;;;;;3.33;1.92;;;;;;;20.44;48.13;99518.19;5010179;28;20527;-81
2023/07/19 02:33:55;;;;;;;3.20;1.55;;;;;;;20.43;48.08;99513.84;5010127;28;20065;-81
2023/07/19 02:36:22;;;;;;;6.03;1.70;;;;;;;20.45;48.01;99519.03;5008031;28;20068;-81
2023/07/19 02:38:48;;;;;;;2.60;1.38;;;;;;;20.44;47.84;99518.19;5010011;28;20050;-81
2023/07/19 02:41:15;;;;;;;2.47;1.40;;;;;;;20.43;47.73;99513.84;5010524;28;20049;-81
2023/07/19 02:43:41;;;;;;;2.85;1.20;;;;;;;20.44;47.82;99518.19;5010401;28;20491;-80
2023/07/19 02:46:07;;;;;;;1.75;1.35;;;;;;;20.44;47.56;99512.00;5009800;28;20045;-81
2023/07/19 02:48:34;;;;;;;3.10;1.58;;;;;;;20.43;47.44;99513.84;5009710;28;20056;-81
2023/07/19 02:51:00;;;;;;;1.77;1.45;;;;;;;20.44;47.56;99512.00;5011549;28;20061;-81
2023/07/19 02:53:27;;;;;;;3.85;2.00;;;;;;;20.45;47.06;99524.38;5014200;28;20158;-81
2023/07/19 02:55:53;;;;;;;4.07;1.63;;;;;;;20.46;47.24;99523.38;5013838;28;20046;-81
2023/07/19 02:58:19;;;;;;;2.72;1.45;;;;;;;20.47;47.26;99519.72;5141246;22;20621;-78
2023/07/19 03:00:49;;;;;;;3.35;1.63;;;;;;;20.48;47.34;99520.56;5022298;22;20057;-79
2023/07/19 03:03:15;;;;;;;3.35;1.60;;;;;;;20.49;47.00;99515.06;5014084;28;20100;-79
2023/07/19 03:05:45;;;;;;;4.88;1.70;;;;;;;20.49;47.05;99519.56;5013876;28;20057;-78
2023/07/19 03:08:12;;;;;;;3.00;1.67;;;;;;;20.51;46.89;99521.06;5013577;28;20057;-78
2023/07/19 03:10:39;;;;;;;4.32;1.60;;;;;;;20.51;46.89;99528.25;5013819;28;20050;-78
2023/07/19 03:13:07;;;;;;;2.35;1.60;;;;;;;20.51;46.56;99528.25;5014112;28;20046;-78
2023/07/19 03:15:35;;;;;;;2.15;1.58;;;;;;;20.49;46.55;99528.44;5013771;28;20042;-79
2023/07/19 03:18:03;;;;;;;8.20;2.30;;;;;;;20.49;46.54;99527.56;5013819;28;20463;-79
2023/07/19 03:20:30;;;;;;;5.05;1.98;;;;;;;20.48;46.61;99525.91;5013408;28;20072;-79
2023/07/19 03:22:58;;;;;;;3.58;1.85;;;;;;;20.47;46.42;99522.38;5013886;28;20049;-80
2023/07/19 03:25:25;;;;;;;2.72;1.95;;;;;;;20.47;46.31;99532.22;5011899;28;20053;-79
2023/07/19 03:27:51;;;;;;;3.13;1.80;;;;;;;20.47;46.09;99527.72;5013253;28;20060;-79
2023/07/19 03:30:21;;;;;;;4.72;1.90;;;;;;;20.46;46.07;99527.88;5013276;28;20052;-79
2023/07/19 03:32:48;;;;;;;4.50;2.40;;;;;;;20.44;45.93;99523.53;5013287;28;20045;-79
2023/07/19 03:35:15;;;;;;;4.13;2.53;;;;;;;20.43;45.89;99519.19;5013258;28;20137;-79
2023/07/19 03:37:44;;;;;;;3.65;2.17;;;;;;;20.44;45.93;99523.53;5013457;28;20049;-78
2023/07/19 03:40:11;;;;;;;5.25;2.45;;;;;;;20.44;45.51;99518.19;5013187;28;20053;-79
2023/07/19 03:42:38;;;;;;;3.67;2.08;;;;;;;20.43;45.52;99507.66;5013449;28;20050;-78
2023/07/19 03:45:06;;;;;;;5.82;2.13;;;;;;;20.42;45.31;99516.69;5013381;28;20409;-79
2023/07/19 03:47:33;;;;;;;4.97;2.60;;;;;;;20.42;45.18;99517.50;5013116;28;20056;-79
2023/07/19 03:50:00;;;;;;;2.35;1.85;;;;;;;20.43;45.45;99523.69;5008005;28;20399;-79
2023/07/19 03:52:27;;;;;;;4.50;2.20;;;;;;;20.41;45.41;99515.00;5013124;28;20057;-78
2023/07/19 03:54:54;;;;;;;3.58;2.10;;;;;;;20.42;45.26;99522.84;5013096;28;20053;-79
2023/07/19 03:57:21;;;;;;;3.65;2.22;;;;;;;20.42;45.53;99522.84;5012996;28;20049;-79
2023/07/19 03:59:48;;;;;;;3.15;1.95;;;;;;;20.42;45.46;99516.69;5006117;28;20136;-79
2023/07/19 04:02:14;;;;;;;5.43;2.35;;;;;;;20.39;45.60;99517.84;5011906;28;20054;-79
2023/07/19 04:04:41;;;;;;;4.15;2.08;;;;;;;20.39;45.31;99514.31;5005499;28;20054;-78
2023/07/19 04:07:07;;;;;;;5.22;2.10;;;;;;;20.37;45.37;99522.47;5011650;28;20092;-78
2023/07/19 04:09:34;;;;;;;2.72;1.88;;;;;;;20.36;45.65;99522.63;5012783;28;20053;-79
2023/07/19 04:12:01;;;;;;;6.38;2.30;;;;;;;20.34;45.50;99525.50;5008027;28;20050;-78
2023/07/19 04:14:28;;;;;;;4.65;2.03;;;;;;;20.34;45.38;99528.16;5012801;28;20509;-78
2023/07/19 04:16:54;;;;;;;2.70;1.80;;;;;;;20.33;45.65;99520.31;5006690;28;20046;-80
2023/07/19 04:19:21;;;;;;;2.80;1.85;;;;;;;20.32;45.49;99516.78;5012739;28;20298;-79
2023/07/19 04:21:48;;;;;;;8.35;1.77;;;;;;;20.33;45.16;99515.78;5012794;28;20144;-80
2023/07/19 04:24:15;;;;;;;4.47;2.00;;;;;;;20.31;45.36;99518.59;5012604;28;20050;-79
2023/07/19 04:26:41;;;;;;;3.30;2.03;;;;;;;20.32;45.32;99519.44;5012288;28;20046;-79
2023/07/19 04:29:08;;;;;;;4.57;2.50;;;;;;;20.33;45.39;99515.78;5012155;28;20054;-79
2023/07/19 04:31:35;;;;;;;2.97;2.22;;;;;;;20.34;45.57;99512.13;5012611;28;20438;-78
2023/07/19 04:34:01;;;;;;;3.10;2.00;;;;;;;20.38;45.93;99518.00;5012206;28;20092;-80
2023/07/19 04:36:28;;;;;;;4.32;2.47;;;;;;;20.40;46.17;99519.50;5004250;28;20149;-79
2023/07/19 04:38:54;;;;;;;4.55;2.38;;;;;;;20.44;46.24;99520.03;5012257;28;20064;-78
2023/07/19 04:41:21;;;;;;;5.15;2.45;;;;;;;20.48;46.36;99523.22;5011793;28;20503;-79
2023/07/19 04:43:48;;;;;;;3.17;2.05;;;;;;;20.50;46.29;99519.41;5012059;28;20069;-79
2023/07/19 04:46:18;;;;;;;7.47;2.40;;;;;;;20.53;46.38;99528.94;5009126;28;20061;-78
2023/07/19 04:48:45;;;;;;;6.43;2.75;;;;;;;20.59;46.61;99524.81;5004974;28;20042;-77
2023/07/19 04:51:11;;;;;;;7.10;2.70;;;;;;;20.61;46.50;99534.34;5011926;28;20041;-79
2023/07/19 04:53:38;;;;;;;4.80;2.40;;;;;;;20.66;47.04;99523.16;5011473;28;20046;-79
2023/07/19 04:56:05;;;;;;;7.10;2.47;;;;;;;20.68;46.92;99515.81;5011908;28;20049;-80
2023/07/19 04:58:31;;;;;;;3.42;2.50;;;;;;;20.73;46.99;99518.84;5011585;28;20049;-78
2023/07/19 05:01:05;;;;;;;5.43;3.00;;;;;;;20.74;47.56;99517.03;5011490;28;20045;-79
2023/07/19 05:03:32;;;;;;;5.50;2.60;;;;;;;20.80;46.98;99514.53;5011958;28;20050;-78
2023/07/19 05:05:58;;;;;;;6.05;2.60;;;;;;;20.83;47.08;99521.41;5006583;28;20115;-79
2023/07/19 05:08:26;;;;;;;5.35;2.58;;;;;;;20.87;47.47;99514.78;5011679;28;20560;-79
2023/07/19 05:10:53;;;;;;;6.03;3.08;;;;;;;20.90;47.31;99521.63;5011434;28;20053;-80
2023/07/19 05:13:19;;;;;;;6.43;2.70;;;;;;;20.91;47.73;99513.44;5011772;28;20479;-79
2023/07/19 05:15:46;;;;;;;4.43;3.00;;;;;;;20.92;48.01;99512.44;5011674;28;20057;-78
2023/07/19 05:18:12;;;;;;;5.15;2.95;;;;;;;20.94;48.17;99515.78;5008365;28;20060;-78
2023/07/19 05:20:39;;;;;;;3.85;2.50;;;;;;;20.96;48.00;99513.78;5011374;28;20119;-78
2023/07/19 05:23:06;;;;;;;9.20;3.05;;;;;;;20.97;48.49;99517.28;5011385;28;20100;-78
2023/07/19 05:25:33;;;;;;;4.65;2.55;;;;;;;21.00;48.66;99516.16;5011200;28;20136;-77
2023/07/19 05:27:59;;;;;;;4.40;2.60;;;;;;;21.00;48.80;99522.31;5011371;28;20057;-79
2023/07/19 05:30:26;;;;;;;5.28;2.90;;;;;;;20.99;48.76;99517.97;5011531;28;20053;-78
2023/07/19 05:32:53;;;;;;;6.82;2.88;;;;;;;20.99;48.82;99525.16;5011289;28;20046;-79
2023/07/19 05:35:20;;;;;;;6.13;2.80;;;;;;;20.98;48.88;99524.34;5011294;28;20058;-78
2023/07/19 05:37:46;;;;;;;6.65;3.25;;;;;;;20.98;49.03;99524.34;5011295;28;20061;-78
2023/07/19 05:40:13;;;;;;;4.38;2.80;;;;;;;20.99;49.31;99527.84;5011153;28;20400;-79
2023/07/19 05:42:40;;;;;;;4.32;2.78;;;;;;;21.01;49.24;99531.22;5010978;28;20050;-79
2023/07/19 05:45:08;;;;;;;8.63;3.35;;;;;;;20.99;49.43;99527.84;5011071;28;20080;-78
2023/07/19 05:47:34;;;;;;;5.00;2.67;;;;;;;21.00;49.48;99532.22;5011359;28;20414;-78
2023/07/19 05:50:01;;;;;;;4.25;2.50;;;;;;;20.99;49.43;99519.81;5011363;28;20046;-80
2023/07/19 05:52:28;;;;;;;6.32;2.78;;;;;;;20.98;49.31;99532.38;5002780;28;20052;-80
2023/07/19 05:54:55;;;;;;;4.15;2.83;;;;;;;20.98;49.80;99529.69;5005488;28;20073;-79
2023/07/19 05:57:22;;;;;;;6.03;2.95;;;;;;;20.99;50.22;99530.50;5010561;28;20054;-80
2023/07/19 05:59:49;;;;;;;4.13;2.63;;;;;;;21.02;50.24;99533.72;5010512;28;20054;-78
2023/07/19 06:02:15;;;;;;;5.03;2.53;;;;;;;21.06;50.08;99520.84;5010169;28;20053;-80
2023/07/19 06:04:42;;;;;;;5.45;3.03;;;;;;;21.10;50.01;99527.56;5003094;28;20100;-78
2023/07/19 06:07:09;;;;;;;6.90;2.63;;;;;;;21.15;49.88;99538.59;5008974;28;20058;-79
2023/07/19 06:09:36;;;;;;;5.03;2.85;;;;;;;21.19;49.91;99539.13;5002934;28;20053;-79
2023/07/19 06:12:03;;;;;;;5.50;2.63;;;;;;;21.22;49.70;99536.13;5009620;28;20089;-79
2023/07/19 06:14:29;;;;;;;7.85;2.83;;;;;;;21.24;49.47;99539.50;5009027;28;20049;-78
2023/07/19 06:16:56;;;;;;;6.25;2.70;;;;;;;21.26;49.42;99537.47;5010478;28;20054;-79
2023/07/19 06:19:23;;;;;;;6.40;2.25;;;;;;;21.29;49.73;99534.47;5010707;28;20053;-79
2023/07/19 06:21:51;;;;;;;4.85;2.65;;;;;;;21.33;49.90;99527.78;5010540;28;20156;-79
2023/07/19 06:24:17;;;;;;;6.60;2.70;;;;;;;21.37;49.43;99538.19;5010657;28;20058;-80
2023/07/19 06:26:44;;;;;;;6.28;2.65;;;;;;;21.38;49.56;99545.22;5013490;28;20050;-78
2023/07/19 06:29:11;;;;;;;4.35;2.17;;;;;;;21.39;49.53;99538.84;5014859;28;20093;-78
2023/07/19 06:31:37;;;;;;;4.28;2.50;;;;;;;21.38;49.53;99538.00;5006759;28;20057;-79
2023/07/19 06:34:04;;;;;;;4.10;2.50;;;;;;;21.38;49.70;99540.66;5014738;28;20042;-79
2023/07/19 06:36:31;;;;;;;8.65;2.38;;;;;;;21.41;50.12;99539.53;5014424;28;20057;-79
2023/07/19 06:38:57;;;;;;;5.38;2.58;;;;;;;21.44;49.99;99534.69;5009159;28;20057;-78
2023/07/19 06:41:24;;;;;;;4.93;2.58;;;;;;;21.49;50.10;99539.53;5014581;28;20042;-79
2023/07/19 06:43:50;;;;;;;5.18;2.60;;;;;;;21.53;50.12;99534.69;5014390;28;20613;-78
2023/07/19 06:46:17;;;;;;;5.22;2.60;;;;;;;21.56;49.77;99537.03;5014604;28;20057;-78
2023/07/19 06:48:44;;;;;;;5.05;2.65;;;;;;;21.57;50.26;99534.19;5007253;28;20054;-81
2023/07/19 06:51:10;;;;;;;6.18;2.80;;;;;;;21.58;50.24;99535.88;5013420;28;20119;-79
2023/07/19 06:53:37;;;;;;;5.78;2.92;;;;;;;21.62;50.13;99533.72;5014327;28;20141;-79
2023/07/19 06:56:07;;;;;;;7.50;2.65;;;;;;;21.65;49.92;99529.84;5013865;28;20046;-78
2023/07/19 06:58:34;;;;;;;4.65;2.67;;;;;;;21.68;50.14;99538.38;5013495;28;20049;-79
2023/07/19 07:01:01;;;;;;;4.53;2.55;;;;;;;21.70;49.76;99533.72;5014175;28;20056;-78
2023/07/19 07:03:29;;;;;;;6.38;2.90;;;;;;;21.73;49.62;99538.78;5013624;28;20061;-79
2023/07/19 07:05:57;;;;;;;8.50;2.47;;;;;;;21.74;49.57;99534.25;5014020;28;20060;-79
2023/07/19 07:08:26;;;;;;;6.63;2.42;;;;;;;21.78;49.87;99534.75;5013961;28;20046;-78
2023/07/19 07:10:53;;;;;;;6.72;2.58;;;;;;;21.80;49.85;99538.94;5013626;28;20506;-79
2023/07/19 07:13:20;;;;;;;5.82;2.40;;;;;;;21.83;49.90;99548.50;5014098;28;20614;-78
2023/07/19 07:15:47;;;;;;;5.65;2.47;;;;;;;21.87;50.14;99549.84;5013947;28;20057;-80
2023/07/19 07:18:14;;;;;;;5.22;2.28;;;;;;;21.91;50.25;99559.22;5013651;28;20050;-78
2023/07/19 07:20:40;;;;;;;5.35;2.67;;;;;;;21.94;50.29;99560.72;5013327;28;20050;-80
2023/07/19 07:23:07;;;;;;;5.25;2.28;;;;;;;21.96;50.39;99559.56;5009970;28;20603;-79
2023/07/19 07:25:35;;;;;;;4.85;2.60;;;;;;;21.99;50.58;99566.41;5005045;28;20673;-79
2023/07/19 07:28:02;;;;;;;5.40;2.50;;;;;;;22.03;50.57;99553.50;5012293;28;20417;-79
2023/07/19 07:30:29;;;;;;;4.28;2.72;;;;;;;22.06;50.27;99559.41;5013391;28;20119;-80
2023/07/19 07:32:56;;;;;;;4.63;2.80;;;;;;;22.10;50.29;99557.22;5008191;28;20061;-79
2023/07/19 07:35:22;;;;;;;3.80;2.58;;;;;;;22.13;50.43;99564.91;5013585;28;20058;-80
2023/07/19 07:37:49;;;;;;;6.18;3.05;;;;;;;22.17;50.60;99555.53;5012249;28;20054;-80
2023/07/19 07:40:16;;;;;;;3.53;2.05;;;;;;;22.22;50.55;99549.66;5010359;28;20145;-78
2023/07/19 07:42:42;;;;;;;4.82;2.67;;;;;;;22.30;50.58;99548.81;5012731;28;20054;-80
2023/07/19 07:45:09;;;;;;;4.88;2.30;;;;;;;22.38;49.80;99552.31;5013319;28;20076;-79
2023/07/19 07:47:36;;;;;;;5.63;2.20;;;;;;;22.45;49.55;99555.16;5012520;28;20060;-80
2023/07/19 07:50:04;;;;;;;5.18;2.55;;;;;;;22.52;49.57;99563.34;5012228;28;20049;-79
2023/07/19 07:52:31;;;;;;;5.07;2.13;;;;;;;22.56;49.39;99558.50;5012370;28;20062;-79
2023/07/19 07:54:57;;;;;;;5.63;1.95;;;;;;;22.59;49.68;99558.19;5012131;28;20053;-79
2023/07/19 07:57:25;;;;;;;5.43;1.92;;;;;;;22.61;49.15;99561.53;5010565;28;20050;-79
2023/07/19 07:59:52;;;;;;;17.83;2.08;;;;;;;22.61;49.04;99554.31;5011804;28;20145;-79
2023/07/19 08:02:18;;;;;;;6.03;2.28;;;;;;;22.63;49.02;99560.34;5026347;28;20836;-81
2023/07/19 08:04:45;;;;;;;4.05;2.15;;;;;;;22.67;48.28;99554.63;5012791;28;20560;-80
2023/07/19 08:07:11;;;;;;;5.50;1.88;;;;;;;22.70;48.88;99549.78;5009566;28;20466;-78
2023/07/19 08:09:40;;;;;;;4.97;2.20;;;;;;;22.75;49.01;99551.91;5012654;28;20053;-79
2023/07/19 08:12:07;;;;;;;4.63;2.15;;;;;;;22.83;48.73;99549.22;5012824;28;20076;-79
2023/07/19 08:14:36;;;;;;;3.45;1.90;;;;;;;22.89;47.98;99547.69;5012916;28;20104;-79
2023/07/19 08:17:03;;;;;;;3.53;1.73;;;;;;;22.98;47.84;99546.66;5012663;28;20051;-78
2023/07/19 08:19:30;;;;;;;4.05;1.40;;;;;;;23.03;47.64;99530.84;5003709;28;20065;-79
2023/07/19 08:22:04;;;;;;;2.63;1.38;;;;;;;23.11;47.68;99539.88;5012278;28;20049;-80
2023/07/19 08:24:31;;;;;;;7.35;1.85;;;;;;;23.19;48.31;99547.91;5012420;28;20046;-79
2023/07/19 08:26:58;;;;;;;4.00;1.67;;;;;;;23.25;47.39;99539.13;5012348;28;20057;-79
2023/07/19 08:29:27;;;;;;;2.95;1.30;;;;;;;23.31;47.06;99534.91;5012620;28;20062;-79
2023/07/19 08:31:54;;;;;;;3.50;1.40;;;;;;;23.38;47.17;99532.38;5012108;28;20169;-78
2023/07/19 08:34:20;;;;;;;4.03;1.20;;;;;;;23.45;46.72;99538.72;5012574;28;20050;-80
2023/07/19 08:36:47;;;;;;;2.03;1.25;;;;;;;23.52;46.40;99538.84;5012042;28;20418;-80
2023/07/19 08:39:14;;;;;;;3.10;1.38;;;;;;;23.58;46.30;99540.00;5009217;28;20054;-80
2023/07/19 08:41:43;;;;;;;5.68;1.52;;;;;;;23.64;46.15;99539.28;5012188;28;20045;-78
2023/07/19 08:44:10;;;;;;;1.90;1.20;;;;;;;23.69;45.72;99531.50;5012105;28;20525;-81
2023/07/19 08:46:37;;;;;;;3.45;1.48;;;;;;;23.75;45.81;99530.81;5012062;28;20068;-80
2023/07/19 08:49:04;;;;;;;2.30;1.13;;;;;;;23.81;45.45;99532.75;5011879;28;20053;-79
2023/07/19 08:51:32;;;;;;;2.25;1.35;;;;;;;23.87;46.02;99533.88;5011948;28;20057;-79
2023/07/19 08:53:59;;;;;;;4.50;1.25;;;;;;;23.93;46.08;99538.53;5011932;28;20061;-80
2023/07/19 08:56:26;;;;;;;5.25;1.40;;;;;;;24.02;46.23;99527.72;5011985;28;20053;-80
2023/07/19 09:02:10;;;;;;;3.60;1.23;;;;;;;24.20;45.36;99533.66;5029346;22;20404;-80
2023/07/19 09:04:38;;;;;;;5.82;1.50;;;;;;;24.26;45.75;99534.75;5010557;28;20060;-80
2023/07/19 09:07:05;;;;;;;2.63;1.25;;;;;;;24.32;45.83;99531.34;5010626;28;20058;-80
2023/07/19 09:09:32;;;;;;;2.50;1.20;;;;;;;24.41;46.02;99529.38;5010789;28;20136;-80
2023/07/19 09:11:58;;;;;;;3.90;1.27;;;;;;;24.51;45.86;99518.34;5010620;28;20042;-80
2023/07/19 09:14:35;;;;;;;3.63;1.23;;;;;;;24.59;44.94;99514.72;5010652;28;20054;-80
2023/07/19 09:17:02;;;;;;;2.97;1.20;;;;;;;24.71;44.91;99517.81;5010331;28;20591;-80
2023/07/19 09:19:29;;;;;;;3.08;1.30;;;;;;;24.80;44.97;99521.22;5010411;28;20054;-80
2023/07/19 09:21:56;;;;;;;1.73;1.08;;;;;;;24.87;44.81;99518.66;5004578;28;20503;-80
2023/07/19 09:24:23;;;;;;;1.45;1.05;;;;;;;24.92;44.06;99530.53;5010637;28;20068;-80
2023/07/19 09:26:50;;;;;;;5.65;1.50;;;;;;;24.99;44.06;99519.84;5003877;28;20058;-81
2023/07/19 09:29:21;;;;;;;2.85;1.23;;;;;;;25.03;42.89;99521.16;5010562;28;20054;-80
2023/07/19 09:31:53;;;;;;;3.28;1.30;;;;;;;25.04;43.04;99513.91;5010519;28;20058;-80
2023/07/19 09:34:28;;;;;;;4.07;1.35;;;;;;;25.04;43.07;99517.41;5010545;28;20092;-80
2023/07/19 09:36:55;;;;;;;3.08;1.10;;;;;;;25.10;42.87;99511.28;5010154;28;20116;-80
2023/07/19 09:39:22;;;;;;;5.28;1.60;;;;;;;25.15;43.02;99517.97;5010351;28;20052;-80
2023/07/19 09:41:48;;;;;;;4.10;1.20;;;;;;;25.19;42.92;99519.25;5010017;28;20549;-80
2023/07/19 09:44:18;;;;;;;4.55;1.55;;;;;;;25.28;44.17;99520.81;5010083;28;20497;-80
2023/07/19 09:46:45;;;;;;;3.13;1.38;;;;;;;25.36;43.43;99518.00;5010073;28;20050;-80
2023/07/19 09:49:12;;;;;;;2.95;1.40;;;;;;;25.45;43.81;99516.00;5006522;28;20054;-80
2023/07/19 09:51:41;;;;;;;2.58;1.40;;;;;;;25.53;43.14;99511.53;5010109;28;20500;-80
2023/07/19 09:54:10;;;;;;;4.57;1.65;;;;;;;25.57;43.16;99520.94;5010182;28;20056;-81
2023/07/19 09:56:38;;;;;;;2.53;1.10;;;;;;;25.61;43.54;99509.56;5009768;28;20064;-81
2023/07/19 09:59:30;;;;;;;3.60;1.45;;;;;;;25.62;43.98;99505.88;5009655;28;20125;-80
2023/07/19 10:01:57;;;;;;;3.97;1.25;;;;;;;25.77;44.03;99504.94;5000894;28;20076;-80
2023/07/19 10:04:28;;;;;;;2.83;1.10;;;;;;;25.84;43.03;99507.69;5009935;28;20085;-80
2023/07/19 10:07:07;;;;;;;4.18;1.30;;;;;;;25.85;42.45;99506.66;5009839;28;20108;-80
2023/07/19 10:09:45;;;;;;;3.63;1.55;;;;;;;25.89;43.42;99516.03;5000862;28;20428;-81
2023/07/19 10:12:17;;;;;;;3.28;1.45;;;;;;;25.94;43.54;99507.38;5010104;28;20041;-80
2023/07/19 10:14:56;;;;;;;4.18;1.73;;;;;;;25.98;42.85;99505.97;5009727;28;20072;-80
2023/07/19 10:17:23;;;;;;;5.03;1.73;;;;;;;26.09;43.35;99501.88;5009934;28;20797;-80
2023/07/19 10:19:57;;;;;;;3.28;1.40;;;;;;;26.14;42.37;99511.06;5009292;28;20531;-80
2023/07/19 10:22:48;;;;;;;3.20;1.50;;;;;;;26.18;41.75;99499.84;5009774;28;20042;-81
2023/07/19 10:25:19;;;;;;;3.97;1.63;;;;;;;26.27;42.00;99504.09;5009630;28;20096;-81
2023/07/19 10:27:58;;;;;;;4.10;1.50;;;;;;;26.29;41.29;99504.75;5009345;28;20054;-80
2023/07/19 10:30:43;;;;;;;3.60;1.48;;;;;;;26.32;42.67;99493.56;5007638;28;20137;-81
2023/07/19 10:33:14;;;;;;;5.03;1.83;;;;;;;26.42;42.08;99501.28;5005597;28;20050;-80
2023/07/19 10:35:42;;;;;;;4.18;1.50;;;;;;;26.49;41.14;99487.84;5009151;28;20053;-80
2023/07/19 10:38:18;;;;;;;5.78;1.55;;;;;;;26.52;40.80;99501.78;5009609;28;20080;-80
2023/07/19 10:40:59;;;;;;;3.40;1.33;;;;;;;26.58;40.70;99488.53;5009042;28;20050;-81
2023/07/19 10:43:27;;;;;;;2.78;1.30;;;;;;;26.62;41.26;99498.72;5009706;28;20453;-81
2023/07/19 10:46:13;;;;;;;4.63;1.55;;;;;;;26.65;40.60;99492.91;5006613;28;20128;-81
2023/07/19 10:48:40;;;;;;;2.15;1.40;;;;;;;26.64;40.73;99482.31;5001690;28;20050;-80
2023/07/19 10:51:09;;;;;;;3.50;1.33;;;;;;;26.65;41.09;99492.91;5009395;28;20103;-81
2023/07/19 10:53:56;;;;;;;3.47;1.50;;;;;;;26.63;40.74;99486.88;5001417;28;20050;-81
2023/07/19 10:56:24;;;;;;;3.30;1.05;;;;;;;26.72;40.28;99484.03;5009355;28;20783;-80
2023/07/19 10:58:50;;;;;;;4.30;1.45;;;;;;;26.73;40.34;99485.69;5009254;28;20056;-80
2023/07/19 11:01:17;;;;;;;3.17;1.35;;;;;;;26.72;40.39;99484.84;5005999;28;20546;-80
2023/07/19 11:03:46;;;;;;;4.25;1.58;;;;;;;26.72;40.21;99484.03;5009087;28;20058;-80
2023/07/19 11:06:13;;;;;;;3.05;1.40;;;;;;;26.71;39.99;99487.75;5009661;28;20061;-80
2023/07/19 11:08:40;;;;;;;2.90;1.63;;;;;;;26.67;39.89;99488.16;5008626;28;20471;-80
2023/07/19 11:11:07;;;;;;;1.50;1.10;;;;;;;26.67;39.81;99490.84;5009092;28;20053;-80
2023/07/19 11:13:34;;;;;;;3.78;1.35;;;;;;;26.69;39.70;99484.41;5004346;28;20475;-80
2023/07/19 11:16:01;;;;;;;2.55;1.17;;;;;;;26.72;39.60;99484.03;5011995;28;20064;-81
2023/07/19 11:18:28;;;;;;;4.28;1.40;;;;;;;26.70;38.84;99496.88;5012824;28;20046;-80
2023/07/19 11:20:58;;;;;;;3.83;1.60;;;;;;;26.62;39.25;99487.09;5012774;28;20064;-80
2023/07/19 11:23:29;;;;;;;2.33;1.30;;;;;;;26.47;38.91;99493.47;5012598;28;20052;-81
2023/07/19 11:26:06;;;;;;;3.80;1.50;;;;;;;26.30;39.60;99492.06;5007112;28;20054;-80
2023/07/19 11:28:42;;;;;;;2.70;1.25;;;;;;;26.17;39.88;99499.03;5011340;28;20088;-80
2023/07/19 11:31:10;;;;;;;3.05;1.33;;;;;;;26.05;40.08;99477.16;5012779;28;20049;-80
2023/07/19 11:33:39;;;;;;;6.15;1.90;;;;;;;25.97;40.60;99488.94;5012528;28;20050;-80
2023/07/19 11:36:07;;;;;;;3.60;1.50;;;;;;;25.93;40.52;99492.22;5012408;28;20306;-81
2023/07/19 11:38:37;;;;;;;3.35;1.35;;;;;;;25.88;41.11;99490.94;5012231;28;20511;-80
2023/07/19 11:41:04;;;;;;;2.92;1.35;;;;;;;25.89;41.41;99495.31;5012554;28;20062;-80